目标达成 感谢每一位支持者 — 我们达成了 100% 目标!

目标: 1000 元 · 已筹: 1336

100%

access:pre-auth 标签下的 CVE 漏洞 24931

access:pre-auth 类型相关 24931 条 CVE 漏洞,含 AI 中文分析、CVSS、参考链接与 POC。

“access:pre-auth”标签标识了无需身份验证即可触发的漏洞,涵盖18971个CVE。此类漏洞之所以关键,是因为攻击者无需凭证即可直接利用,极大降低了攻击门槛并扩大了潜在受害面。典型场景包括远程代码执行、未授权数据访问及拒绝服务攻击,常见于配置错误的API接口、默认凭证服务或存在逻辑缺陷的认证前处理模块,对系统安全性构成直接且严重的威胁。

CVE ID 标题 CVSS 风险等级 Published
CVE-2025-41002 MANANTIAL DE IDEAS Infoticketing SQL注入漏洞 — Infoticketing CWE-89 9.8AI Critical AI 2026-02-23
CVE-2026-2976 FastAPI Admin 访问控制错误漏洞 — FastApiAdmin CWE-200 4.3 Medium 2026-02-23
CVE-2026-24494 Online Ordering System 安全漏洞 — Online Ordering System CWE-89 9.8 Critical 2026-02-23
CVE-2026-2959 D-Link DWR-M960 安全漏洞 — DWR-M960 CWE-121 8.8 High 2026-02-22
CVE-2019-25462 Web Ofisi Rent a Car SQL注入漏洞 — Rent a Car CWE-89 8.2 High 2026-02-22
CVE-2019-25461 Web Ofisi E-Ticaret SQL注入漏洞 — Ticaret CWE-89 7.5 High 2026-02-22
CVE-2019-25460 Web Ofisi E-Ticaret SQL注入漏洞 — Ticaret CWE-89 7.5 High 2026-02-22
CVE-2019-25459 Web Ofisi Emlak SQL注入漏洞 — Emlak CWE-89 9.8 Critical 2026-02-22
CVE-2019-25458 Web Ofisi Firma Rehberi SQL注入漏洞 — Firma Rehberi CWE-89 9.8 Critical 2026-02-22
CVE-2019-25457 Web Ofisi Firma SQL注入漏洞 — Firma CWE-89 7.5 High 2026-02-22
CVE-2019-25455 Web Ofisi E-Ticaret SQL注入漏洞 — Ticaret CWE-89 7.5 High 2026-02-22
CVE-2019-25456 Web Ofisi Emlak SQL注入漏洞 — Emlak CWE-89 9.1 Critical 2026-02-22
CVE-2019-25366 microASP Portal+ CMS SQL注入漏洞 — microASP (Portal+) CMS CWE-89 8.2 High 2026-02-22
CVE-2019-25440 WebIncorp ERP SQL注入漏洞 — WebIncorp ERP CWE-89 8.2 High 2026-02-22
CVE-2019-25433 XOOPS CMS SQL注入漏洞 — XOOPS CMS CWE-89 8.2 High 2026-02-22
CVE-2019-25452 Dolibarr ERP/CRM SQL注入漏洞 — Dolibarr ERP/CRM CWE-89 7.5 High 2026-02-22
CVE-2019-25446 DIGIT CENTRIS ERP SQL注入漏洞 — DIGIT CENTRIS CWE-89 8.2 High 2026-02-22
CVE-2019-25443 Inventory Webapp SQL注入漏洞 — inventory-webapp CWE-89 8.2 High 2026-02-22
CVE-2019-25442 Web Wiz Forums SQL注入漏洞 — Web Wiz Forums CWE-89 7.5 High 2026-02-22
CVE-2026-2385 WordPress plugin The Plus Addons for Elementor – Addons for Elementor, Page Templates, Widgets, Mega Menu, WooCommerce 数据伪造问题漏洞 — The Plus Addons for Elementor – Addons for Elementor, Page Templates, Widgets, Mega Menu, WooCommerce CWE-345 5.3 Medium 2026-02-22
CVE-2026-2885 D-Link DWR-M960 安全漏洞 — DWR-M960 CWE-121 8.8 High 2026-02-21
CVE-2026-1787 WordPress plugin LearnPress Export Import – WordPress extension for LearnPress 安全漏洞 — LearnPress – Backup & Migration Tool CWE-862 4.8 Medium 2026-02-21
CVE-2025-14339 WordPress plugin weMail 安全漏洞 — weMail: Email Marketing, Email Automation, Newsletters, Subscribers & Email Optins for WooCommerce CWE-862 6.5 Medium 2026-02-21
CVE-2026-27482 Ray 安全漏洞 — ray CWE-396 5.9 Medium 2026-02-21
CVE-2026-27469 Isso 安全漏洞 — isso CWE-79 6.1 Medium 2026-02-21
CVE-2026-27161 GetSimple CMS 信息泄露漏洞 — GetSimpleCMS-CE CWE-200 5.9AI Medium AI 2026-02-20
CVE-2019-25454 phpMoAdmin 跨站脚本漏洞 — phpMoAdmin CWE-79 6.1 Medium 2026-02-20
CVE-2019-25453 phpMoAdmin 跨站脚本漏洞 — phpMoAdmin CWE-79 6.1 Medium 2026-02-20
CVE-2019-25441 thesystem 操作系统命令注入漏洞 — thesystem CWE-78 9.8 Critical 2026-02-20
CVE-2019-25438 LabCollector SQL注入漏洞 — LabCollector CWE-89 7.5 High 2026-02-20

access:pre-auth 是常见的弱点类别,本平台收录该类弱点关联的 24931 条 CVE 漏洞。